Time;durP1;ratioP1;P1;durP2;ratioP2;P2;SDS_P1;SDS_P2;PMS_P1;PMS_P2;Temp;Humidity;BMP_temperature;BMP_pressure;BME280_temperature;BME280_humidity;BME280_pressure;Samples;Min_cycle;Max_cycle;Signal;HPM_P1;HPM_P2
2023/12/06 00:02:00;;;;;;;29.48;18.25;;;1.80;99.90;;;;;;4956910;28;20390;-77
2023/12/06 00:04:26;;;;;;;30.33;15.82;;;1.80;99.90;;;;;;4958313;28;20022;-77
2023/12/06 00:06:52;;;;;;;26.30;15.38;;;1.90;99.90;;;;;;4958597;28;20034;-73
2023/12/06 00:09:18;;;;;;;26.75;16.17;;;2.00;99.90;;;;;;4969001;28;20029;-74
2023/12/06 00:11:44;;;;;;;28.30;17.17;;;2.00;99.90;;;;;;4975931;28;20049;-77
2023/12/06 00:14:10;;;;;;;34.75;19.70;;;2.00;99.90;;;;;;4956296;28;20035;-74
2023/12/06 00:16:39;;;;;;;34.63;17.80;;;2.00;99.90;;;;;;4962882;28;20058;-76
2023/12/06 00:19:05;;;;;;;30.95;18.25;;;2.00;99.90;;;;;;4958721;28;20038;-77
2023/12/06 00:21:31;;;;;;;32.38;19.10;;;2.10;99.90;;;;;;4958513;28;20027;-75
2023/12/06 00:23:57;;;;;;;34.20;21.67;;;2.10;99.90;;;;;;4956154;28;20026;-76
2023/12/06 00:26:23;;;;;;;34.90;21.90;;;2.10;99.90;;;;;;4955045;28;20016;-77
2023/12/06 00:28:49;;;;;;;35.30;21.08;;;2.10;99.90;;;;;;4961978;28;20061;-76
2023/12/06 00:31:15;;;;;;;37.22;22.73;;;2.10;99.90;;;;;;4959875;28;20027;-75
2023/12/06 00:33:41;;;;;;;38.03;22.88;;;2.10;99.90;;;;;;4956698;28;20039;-78
2023/12/06 00:36:07;;;;;;;34.38;20.67;;;2.10;99.90;;;;;;4956713;28;20035;-76
2023/12/06 00:38:33;;;;;;;36.28;20.25;;;2.10;99.90;;;;;;4954396;28;20031;-76
2023/12/06 00:41:00;;;;;;;32.03;19.05;;;2.00;99.90;;;;;;4960201;28;20028;-78
2023/12/06 00:43:26;;;;;;;27.35;16.63;;;2.00;99.90;;;;;;4957127;28;20031;-78
2023/12/06 00:45:53;;;;;;;34.17;18.15;;;2.00;99.90;;;;;;4957602;28;20030;-75
2023/12/06 00:48:18;;;;;;;28.27;15.60;;;1.90;99.90;;;;;;4955173;28;20019;-75
2023/12/06 00:50:44;;;;;;;33.60;17.08;;;1.80;99.90;;;;;;4957206;28;20491;-74
2023/12/06 00:53:10;;;;;;;29.02;17.95;;;1.70;99.90;;;;;;4958520;28;20031;-73
2023/12/06 00:55:36;;;;;;;27.60;16.30;;;1.80;99.90;;;;;;4959167;28;20371;-75
2023/12/06 00:58:02;;;;;;;28.85;17.42;;;1.80;99.90;;;;;;4955579;28;20443;-76
2023/12/06 01:00:28;;;;;;;31.00;17.23;;;1.80;99.90;;;;;;4959725;28;20035;-79
2023/12/06 01:02:54;;;;;;;31.90;16.17;;;1.80;99.90;;;;;;4953952;28;20107;-78
2023/12/06 01:05:20;;;;;;;28.42;15.50;;;1.90;99.90;;;;;;4962619;28;20147;-78
2023/12/06 01:07:45;;;;;;;27.30;14.20;;;1.90;99.90;;;;;;4956374;28;20050;-77
2023/12/06 01:10:11;;;;;;;25.85;14.40;;;1.90;99.90;;;;;;4956362;28;20055;-78
2023/12/06 01:12:37;;;;;;;23.17;14.15;;;1.90;99.90;;;;;;4954500;28;20038;-77
2023/12/06 01:15:04;;;;;;;25.50;14.20;;;1.90;99.90;;;;;;4959987;28;20023;-76
2023/12/06 01:17:32;;;;;;;25.10;13.50;;;1.90;99.90;;;;;;4957602;28;20717;-74
2023/12/06 01:19:58;;;;;;;25.90;13.80;;;1.90;99.90;;;;;;4957629;28;20050;-77
2023/12/06 01:22:24;;;;;;;23.92;13.63;;;2.00;99.90;;;;;;4955134;28;20023;-78
2023/12/06 01:24:55;;;;;;;27.40;14.65;;;2.00;99.90;;;;;;4954403;28;20046;-77
2023/12/06 01:27:21;;;;;;;26.73;14.85;;;2.00;99.90;;;;;;4957406;28;20391;-75
2023/12/06 01:29:47;;;;;;;25.00;13.43;;;2.10;99.90;;;;;;4963059;28;20034;-74
2023/12/06 01:32:13;;;;;;;25.15;15.00;;;2.00;99.90;;;;;;4956236;28;20106;-78
2023/12/06 01:34:39;;;;;;;26.75;15.20;;;2.10;99.90;;;;;;4957165;28;20050;-79
2023/12/06 01:37:05;;;;;;;26.90;13.98;;;2.20;99.90;;;;;;4954249;28;20542;-74
2023/12/06 01:39:30;;;;;;;25.08;15.88;;;2.30;99.90;;;;;;4953656;28;20490;-77
2023/12/06 01:41:57;;;;;;;25.48;15.18;;;2.30;99.90;;;;;;4956725;28;20126;-78
2023/12/06 01:44:22;;;;;;;27.00;14.73;;;2.40;99.90;;;;;;4957951;28;20109;-77
2023/12/06 01:46:48;;;;;;;23.92;14.13;;;2.50;99.90;;;;;;4954562;28;20102;-74
2023/12/06 01:49:15;;;;;;;24.27;14.30;;;2.50;99.90;;;;;;4954393;28;20085;-77
2023/12/06 01:51:41;;;;;;;25.25;15.10;;;2.50;99.90;;;;;;4953161;28;20498;-74
2023/12/06 01:54:08;;;;;;;23.92;13.15;;;2.50;99.90;;;;;;4959446;28;20019;-72
2023/12/06 01:56:36;;;;;;;31.27;14.73;;;2.50;99.90;;;;;;4955050;28;20095;-76
2023/12/06 01:59:02;;;;;;;23.80;13.82;;;2.50;99.90;;;;;;4955866;28;20042;-77
2023/12/06 02:01:28;;;;;;;21.15;12.52;;;2.40;99.90;;;;;;4955342;28;20049;-76
2023/12/06 02:03:54;;;;;;;25.80;13.73;;;2.50;99.90;;;;;;4958081;28;20037;-77
2023/12/06 02:06:20;;;;;;;22.98;12.75;;;2.60;99.90;;;;;;4956688;28;20031;-72
2023/12/06 02:08:47;;;;;;;24.98;13.13;;;2.60;99.90;;;;;;4956737;28;20106;-77
2023/12/06 02:11:13;;;;;;;25.13;13.73;;;2.70;99.90;;;;;;4953715;28;20376;-74
2023/12/06 02:13:39;;;;;;;26.92;12.85;;;2.70;99.90;;;;;;4956214;28;20042;-77
2023/12/06 02:16:06;;;;;;;26.77;15.13;;;2.70;99.90;;;;;;4955845;28;20534;-78
2023/12/06 02:18:33;;;;;;;27.10;17.05;;;2.70;99.90;;;;;;4956645;28;20077;-76
2023/12/06 02:20:59;;;;;;;27.75;17.45;;;2.60;99.90;;;;;;4954127;28;20069;-75
2023/12/06 02:23:33;;;;;;;25.35;16.00;;;2.70;99.90;;;;;;4953690;28;20518;-77
2023/12/06 02:25:59;;;;;;;25.45;15.38;;;2.70;99.90;;;;;;4952623;28;20019;-74
2023/12/06 02:28:25;;;;;;;23.90;13.75;;;2.50;99.90;;;;;;4959008;28;20486;-73
2023/12/06 02:30:51;;;;;;;23.35;13.07;;;2.50;99.90;;;;;;4954608;28;20081;-74
2023/12/06 02:33:17;;;;;;;21.00;12.45;;;2.50;99.90;;;;;;4955326;28;20027;-74
2023/12/06 02:35:48;;;;;;;22.17;12.63;;;2.50;99.90;;;;;;4953279;28;20062;-78
2023/12/06 02:38:16;;;;;;;20.73;12.65;;;2.50;99.90;;;;;;4956045;28;20039;-77
2023/12/06 02:40:45;;;;;;;23.10;14.00;;;2.50;99.90;;;;;;4955534;28;20130;-78
2023/12/06 02:43:12;;;;;;;24.70;12.55;;;2.60;99.90;;;;;;4955820;28;20035;-77
2023/12/06 02:45:38;;;;;;;21.02;13.38;;;2.60;99.90;;;;;;4954841;28;20031;-76
2023/12/06 02:48:05;;;;;;;22.05;12.27;;;2.70;99.90;;;;;;4952770;28;20023;-76
2023/12/06 02:50:31;;;;;;;26.48;13.88;;;2.70;99.90;;;;;;4957662;28;20019;-77
2023/12/06 02:52:57;;;;;;;25.40;14.55;;;2.70;99.90;;;;;;4950753;28;20090;-77
2023/12/06 02:55:22;;;;;;;36.55;20.23;;;2.70;99.90;;;;;;4956398;28;20508;-75
2023/12/06 02:57:48;;;;;;;37.88;21.98;;;2.70;99.90;;;;;;4953742;28;20148;-77
2023/12/06 03:00:14;;;;;;;33.78;21.05;;;2.70;99.90;;;;;;4953451;28;20019;-74
2023/12/06 03:02:40;;;;;;;30.73;17.17;;;2.60;99.90;;;;;;4953049;28;20487;-76
2023/12/06 03:05:07;;;;;;;30.75;18.38;;;2.70;99.90;;;;;;4961416;28;20015;-75
2023/12/06 03:07:32;;;;;;;27.25;16.23;;;2.60;99.90;;;;;;4955096;28;20026;-74
2023/12/06 03:09:58;;;;;;;28.88;15.70;;;2.60;99.90;;;;;;4954411;28;20122;-75
2023/12/06 03:12:25;;;;;;;30.58;16.30;;;2.60;99.90;;;;;;4955937;28;20134;-75
2023/12/06 03:14:51;;;;;;;26.73;16.27;;;2.50;99.90;;;;;;4961374;28;20106;-72
2023/12/06 03:17:17;;;;;;;31.00;19.33;;;2.40;99.90;;;;;;4958600;28;20525;-74
2023/12/06 03:19:43;;;;;;;34.58;20.95;;;2.40;99.90;;;;;;4956781;28;20494;-76
2023/12/06 03:22:09;;;;;;;35.92;22.38;;;2.40;99.90;;;;;;4959533;28;20078;-77
2023/12/06 03:24:35;;;;;;;35.40;21.23;;;2.40;99.90;;;;;;4958604;28;20031;-72
2023/12/06 03:27:01;;;;;;;34.03;20.90;;;2.40;99.90;;;;;;4959505;28;20103;-73
2023/12/06 03:29:26;;;;;;;36.90;22.15;;;2.40;99.90;;;;;;4959798;28;20077;-76
2023/12/06 03:31:52;;;;;;;32.63;20.73;;;2.50;99.90;;;;;;4955878;28;20027;-76
2023/12/06 03:34:18;;;;;;;34.15;21.90;;;2.50;99.90;;;;;;4957996;28;20037;-73
2023/12/06 03:36:44;;;;;;;33.85;19.05;;;2.60;99.90;;;;;;4960590;28;20035;-75
2023/12/06 03:39:10;;;;;;;34.10;21.02;;;2.60;99.90;;;;;;4961134;28;20043;-77
2023/12/06 03:41:36;;;;;;;31.63;19.70;;;2.70;99.90;;;;;;4961234;28;20031;-76
2023/12/06 03:44:02;;;;;;;31.30;17.38;;;2.60;99.90;;;;;;4955274;28;20042;-73
2023/12/06 03:46:28;;;;;;;27.40;16.48;;;2.60;99.90;;;;;;4962257;28;20055;-74
2023/12/06 03:48:53;;;;;;;33.17;18.70;;;2.50;99.90;;;;;;4957647;28;20023;-76
2023/12/06 03:51:20;;;;;;;28.08;16.10;;;2.40;99.90;;;;;;4958269;28;20078;-75
2023/12/06 03:53:45;;;;;;;27.33;15.77;;;2.40;99.90;;;;;;4956352;28;20069;-77
2023/12/06 03:56:12;;;;;;;26.13;15.52;;;2.40;99.90;;;;;;4958696;28;20019;-78
2023/12/06 03:58:39;;;;;;;33.38;18.27;;;2.30;99.90;;;;;;4958554;28;20529;-77
2023/12/06 04:01:04;;;;;;;43.55;25.85;;;2.30;99.90;;;;;;4975071;28;20037;-75
2023/12/06 04:03:30;;;;;;;54.55;27.75;;;2.30;99.90;;;;;;4975130;28;20031;-77
2023/12/06 04:05:57;;;;;;;34.72;22.42;;;2.20;99.90;;;;;;4974836;28;20026;-77
2023/12/06 04:08:22;;;;;;;31.00;17.42;;;2.20;99.90;;;;;;4974780;28;20022;-75
2023/12/06 04:10:48;;;;;;;31.38;17.83;;;2.20;99.90;;;;;;4957773;28;20463;-75
2023/12/06 04:13:14;;;;;;;34.45;17.00;;;2.20;99.90;;;;;;4974748;28;20086;-77
2023/12/06 04:15:40;;;;;;;29.88;17.02;;;2.10;99.90;;;;;;4975112;28;20046;-77
2023/12/06 04:18:06;;;;;;;29.17;16.60;;;2.10;99.90;;;;;;4974826;28;20035;-75
2023/12/06 04:20:32;;;;;;;28.77;17.42;;;2.10;99.90;;;;;;4975247;28;20070;-75
2023/12/06 04:22:58;;;;;;;29.48;17.75;;;2.10;99.90;;;;;;4974721;28;20027;-77
2023/12/06 04:25:24;;;;;;;32.28;18.92;;;2.10;99.90;;;;;;4974469;28;20026;-73
2023/12/06 04:27:50;;;;;;;29.55;17.45;;;2.10;99.90;;;;;;4974713;28;20039;-73
2023/12/06 04:30:16;;;;;;;32.58;18.17;;;2.10;99.90;;;;;;4957039;28;20045;-75
2023/12/06 04:32:42;;;;;;;34.38;20.10;;;2.10;99.90;;;;;;4974698;28;20101;-79
2023/12/06 04:35:09;;;;;;;30.63;18.40;;;2.10;99.90;;;;;;4956695;28;20039;-77
2023/12/06 04:37:35;;;;;;;32.50;19.23;;;2.10;99.90;;;;;;4974691;28;20034;-76
2023/12/06 04:40:01;;;;;;;35.72;19.77;;;2.00;99.90;;;;;;4974342;28;20027;-75
2023/12/06 04:42:27;;;;;;;36.65;22.80;;;2.00;99.90;;;;;;4974464;28;20110;-76
2023/12/06 04:44:53;;;;;;;42.00;23.73;;;2.00;99.90;;;;;;4974557;28;20118;-75
2023/12/06 04:47:19;;;;;;;45.78;23.23;;;2.10;99.90;;;;;;4964518;28;20047;-79
2023/12/06 04:49:45;;;;;;;41.53;24.85;;;2.10;99.90;;;;;;4974745;28;20030;-75
2023/12/06 04:52:11;;;;;;;41.83;23.40;;;2.20;99.90;;;;;;4974543;28;20680;-79
2023/12/06 04:54:37;;;;;;;40.55;22.60;;;2.20;99.90;;;;;;4974566;28;20066;-76
2023/12/06 04:57:03;;;;;;;39.88;20.90;;;2.20;99.90;;;;;;4974304;28;20023;-78
2023/12/06 04:59:29;;;;;;;34.00;19.67;;;2.20;99.90;;;;;;4974591;28;20022;-77
2023/12/06 05:01:54;;;;;;;36.15;19.13;;;2.30;99.90;;;;;;4974350;28;20387;-75
2023/12/06 05:04:22;;;;;;;34.08;18.58;;;2.40;99.90;;;;;;4974550;28;20050;-74
2023/12/06 05:06:49;;;;;;;28.45;17.65;;;2.40;99.90;;;;;;4956470;28;20069;-75
2023/12/06 05:09:15;;;;;;;27.75;17.25;;;2.40;99.90;;;;;;4974172;28;20034;-73
2023/12/06 05:11:41;;;;;;;31.25;18.23;;;2.40;99.90;;;;;;4973600;28;20045;-76
2023/12/06 05:14:07;;;;;;;28.77;17.35;;;2.40;99.90;;;;;;4974361;28;20497;-75
2023/12/06 05:16:32;;;;;;;31.63;19.70;;;2.40;99.90;;;;;;4973290;28;20474;-78
2023/12/06 05:18:58;;;;;;;37.95;22.10;;;2.40;99.90;;;;;;4969858;28;20038;-77
2023/12/06 05:21:24;;;;;;;30.98;19.83;;;2.30;99.90;;;;;;4969588;28;20476;-80
2023/12/06 05:23:50;;;;;;;42.00;25.13;;;2.20;99.90;;;;;;4965750;28;20536;-78
2023/12/06 05:26:16;;;;;;;42.50;24.70;;;2.30;99.90;;;;;;4973653;28;20126;-80
2023/12/06 05:28:42;;;;;;;39.53;24.33;;;2.30;99.90;;;;;;4974129;28;20034;-77
2023/12/06 05:31:08;;;;;;;40.38;23.55;;;2.30;99.90;;;;;;4974095;28;20132;-81
2023/12/06 05:33:33;;;;;;;38.20;22.63;;;2.30;99.90;;;;;;4974209;28;20030;-76
2023/12/06 05:35:59;;;;;;;37.55;22.83;;;2.30;99.90;;;;;;4973665;28;20114;-77
2023/12/06 05:38:25;;;;;;;36.25;22.40;;;2.20;99.90;;;;;;4955905;28;20521;-78
2023/12/06 05:40:51;;;;;;;34.35;21.02;;;2.30;99.90;;;;;;4973836;28;20034;-78
2023/12/06 05:43:17;;;;;;;43.58;22.63;;;2.30;99.90;;;;;;4973982;28;20363;-78
2023/12/06 05:45:43;;;;;;;35.20;21.27;;;2.30;99.90;;;;;;4973848;28;20462;-77
2023/12/06 05:48:09;;;;;;;33.10;19.73;;;2.30;99.90;;;;;;4973517;28;20354;-75
2023/12/06 05:50:35;;;;;;;32.65;19.42;;;2.30;99.90;;;;;;4973559;28;20046;-77
2023/12/06 05:53:02;;;;;;;32.33;20.27;;;2.30;99.90;;;;;;4973806;28;20060;-75
2023/12/06 05:55:28;;;;;;;32.83;20.73;;;2.20;99.90;;;;;;4973871;28;20019;-77
2023/12/06 05:57:54;;;;;;;35.47;19.13;;;2.20;99.90;;;;;;4973762;28;20090;-75
2023/12/06 06:00:20;;;;;;;32.40;19.23;;;2.20;99.90;;;;;;4972995;28;20030;-77
2023/12/06 06:02:45;;;;;;;33.58;19.35;;;2.20;99.90;;;;;;4974049;28;20041;-79
2023/12/06 06:05:11;;;;;;;34.08;20.90;;;2.20;99.90;;;;;;4972879;28;20019;-72
2023/12/06 06:07:38;;;;;;;34.25;21.05;;;2.10;99.90;;;;;;4971855;28;20026;-77
2023/12/06 06:10:04;;;;;;;42.17;22.20;;;2.20;99.90;;;;;;4972851;28;20390;-79
2023/12/06 06:12:30;;;;;;;36.90;21.73;;;2.20;99.90;;;;;;4973459;28;20023;-77
2023/12/06 06:14:56;;;;;;;42.70;24.60;;;2.30;99.90;;;;;;4973119;28;20027;-75
2023/12/06 06:17:22;;;;;;;36.28;20.50;;;2.30;99.90;;;;;;4972962;28;20041;-76
2023/12/06 06:19:49;;;;;;;45.03;20.77;;;2.30;99.90;;;;;;4973239;28;20035;-75
2023/12/06 06:22:15;;;;;;;36.88;20.33;;;2.30;99.90;;;;;;4973018;28;20471;-75
2023/12/06 06:24:40;;;;;;;33.63;21.30;;;2.30;99.90;;;;;;4972740;28;20094;-79
2023/12/06 06:27:06;;;;;;;39.55;21.63;;;2.20;99.90;;;;;;4972813;28;20019;-78
2023/12/06 06:29:32;;;;;;;37.58;21.63;;;2.30;99.90;;;;;;4972384;28;20479;-77
2023/12/06 06:31:58;;;;;;;41.58;23.38;;;2.30;99.90;;;;;;4972542;28;20430;-75
2023/12/06 06:34:24;;;;;;;48.47;25.55;;;2.30;99.90;;;;;;4973294;28;20089;-76
2023/12/06 06:36:50;;;;;;;42.42;25.63;;;2.30;99.90;;;;;;4972904;28;20446;-79
2023/12/06 06:39:16;;;;;;;44.00;25.27;;;2.30;99.90;;;;;;4971849;28;20407;-72
2023/12/06 06:41:42;;;;;;;44.10;24.50;;;2.40;99.90;;;;;;4972161;28;20390;-79
2023/12/06 06:44:07;;;;;;;42.40;24.38;;;2.40;99.90;;;;;;4972268;28;20114;-77
2023/12/06 06:46:33;;;;;;;46.38;25.25;;;2.50;99.90;;;;;;4972588;28;20019;-78
2023/12/06 06:48:59;;;;;;;43.22;25.70;;;2.50;99.90;;;;;;4972462;28;20535;-78
2023/12/06 06:51:35;;;;;;;42.75;25.05;;;2.50;99.90;;;;;;4972490;28;20027;-79
2023/12/06 06:54:05;;;;;;;44.42;25.23;;;2.60;99.90;;;;;;4955425;28;20404;-77
2023/12/06 06:56:31;;;;;;;42.08;24.95;;;2.60;99.90;;;;;;4973121;28;20034;-78
2023/12/06 06:58:57;;;;;;;45.65;25.40;;;2.60;99.90;;;;;;4971744;28;20031;-73
2023/12/06 07:01:23;;;;;;;43.22;25.45;;;2.70;99.90;;;;;;4965283;28;20034;-78
2023/12/06 07:03:50;;;;;;;50.72;26.05;;;2.70;99.90;;;;;;4970800;28;20027;-79
2023/12/06 07:06:16;;;;;;;44.78;26.45;;;2.80;99.90;;;;;;4972730;28;20054;-79
2023/12/06 07:08:41;;;;;;;50.53;27.50;;;2.80;99.90;;;;;;4972591;28;20061;-76
2023/12/06 07:11:08;;;;;;;38.80;25.40;;;2.80;99.90;;;;;;4972702;28;20046;-78
2023/12/06 07:13:37;;;;;;;39.25;25.15;;;2.80;99.90;;;;;;4972452;28;20089;-78
2023/12/06 07:16:03;;;;;;;39.60;22.75;;;2.80;99.90;;;;;;4972726;28;20031;-78
2023/12/06 07:18:31;;;;;;;41.47;24.38;;;2.80;99.90;;;;;;4955132;28;20117;-78
2023/12/06 07:20:58;;;;;;;38.60;22.92;;;2.80;99.90;;;;;;4972597;28;20037;-79
2023/12/06 07:23:24;;;;;;;40.88;23.30;;;2.90;99.90;;;;;;4972830;28;20023;-79
2023/12/06 07:25:51;;;;;;;46.53;23.55;;;2.90;99.90;;;;;;4972578;28;20027;-76
2023/12/06 07:28:18;;;;;;;41.78;23.00;;;2.80;99.90;;;;;;4972331;28;20038;-77
2023/12/06 07:30:43;;;;;;;37.65;22.80;;;2.90;99.90;;;;;;4969048;28;20038;-78
2023/12/06 07:33:09;;;;;;;36.40;21.75;;;2.80;99.90;;;;;;4972133;28;20031;-79
2023/12/06 07:35:36;;;;;;;40.42;23.13;;;2.80;99.90;;;;;;4972655;28;20019;-79
2023/12/06 07:38:02;;;;;;;39.95;23.05;;;2.90;99.90;;;;;;4971641;28;20027;-78
2023/12/06 07:40:28;;;;;;;42.15;23.15;;;3.00;99.90;;;;;;4972236;28;20522;-78
2023/12/06 07:42:55;;;;;;;37.70;24.08;;;3.00;99.90;;;;;;4965931;28;20066;-78
2023/12/06 07:45:21;;;;;;;38.45;22.77;;;3.00;99.90;;;;;;4984106;28;20088;-77
2023/12/06 07:47:48;;;;;;;45.00;24.40;;;3.10;99.90;;;;;;4970823;28;20424;-77
2023/12/06 07:50:14;;;;;;;37.42;23.40;;;3.20;99.90;;;;;;4972308;28;20027;-77
2023/12/06 07:52:40;;;;;;;37.72;24.10;;;3.20;99.90;;;;;;4968253;28;20030;-77
2023/12/06 07:55:06;;;;;;;37.08;23.23;;;3.30;99.90;;;;;;4961802;28;20093;-79
2023/12/06 07:57:33;;;;;;;35.28;22.90;;;3.30;99.90;;;;;;4977818;28;20066;-79
2023/12/06 07:59:59;;;;;;;38.17;23.67;;;3.40;99.90;;;;;;4960487;28;20113;-77
2023/12/06 08:02:25;;;;;;;35.55;21.60;;;3.40;99.90;;;;;;4969399;28;20035;-75
2023/12/06 08:04:51;;;;;;;35.95;21.05;;;3.40;99.90;;;;;;4975151;28;20027;-78
2023/12/06 08:07:17;;;;;;;35.00;21.85;;;3.40;99.90;;;;;;4975791;28;20093;-79
2023/12/06 08:09:44;;;;;;;36.90;20.65;;;3.40;99.90;;;;;;4975392;28;20046;-77
2023/12/06 08:12:10;;;;;;;35.45;23.17;;;3.50;99.90;;;;;;4975806;28;20062;-74
2023/12/06 08:14:39;;;;;;;39.83;22.73;;;3.50;99.90;;;;;;4975368;28;20023;-73
2023/12/06 08:17:06;;;;;;;35.92;22.50;;;3.60;99.90;;;;;;4975369;28;20019;-81
2023/12/06 08:19:32;;;;;;;38.10;22.08;;;3.50;99.90;;;;;;4975716;28;20027;-74
2023/12/06 08:21:57;;;;;;;34.05;21.00;;;3.50;99.90;;;;;;4975290;28;20451;-79
2023/12/06 08:24:23;;;;;;;43.42;23.40;;;3.50;99.90;;;;;;4975640;28;20601;-79
2023/12/06 08:26:50;;;;;;;37.25;21.58;;;3.60;99.90;;;;;;4975142;28;20054;-78
2023/12/06 08:29:16;;;;;;;36.63;20.77;;;3.60;99.90;;;;;;4975484;28;20570;-75
2023/12/06 08:31:42;;;;;;;35.00;21.23;;;3.70;99.90;;;;;;4974968;28;20031;-80
2023/12/06 08:34:08;;;;;;;37.20;20.98;;;3.70;99.90;;;;;;4975418;28;20106;-77
2023/12/06 08:36:34;;;;;;;34.50;21.05;;;3.70;99.90;;;;;;4975220;28;20077;-77
2023/12/06 08:39:00;;;;;;;36.08;21.75;;;3.80;99.90;;;;;;4975148;28;20058;-80
2023/12/06 08:41:26;;;;;;;33.38;19.30;;;3.80;99.90;;;;;;4974865;28;20094;-78
2023/12/06 08:43:52;;;;;;;31.13;20.00;;;3.70;99.90;;;;;;4975177;28;20046;-73
2023/12/06 08:46:18;;;;;;;34.83;21.52;;;3.70;99.90;;;;;;4975272;28;20046;-79
2023/12/06 08:48:44;;;;;;;30.08;18.42;;;3.60;99.90;;;;;;4974978;28;20044;-80
2023/12/06 08:51:10;;;;;;;30.00;18.88;;;3.60;99.90;;;;;;4975086;28;20022;-79
2023/12/06 08:53:35;;;;;;;33.25;20.25;;;3.60;99.90;;;;;;4974934;28;20069;-74
2023/12/06 08:56:01;;;;;;;36.97;21.58;;;3.50;99.90;;;;;;4974761;28;20019;-80
2023/12/06 08:58:27;;;;;;;33.08;20.33;;;3.60;99.90;;;;;;4974702;28;20044;-81
2023/12/06 09:00:53;;;;;;;36.33;21.98;;;3.60;99.90;;;;;;4974952;28;20026;-80
2023/12/06 09:03:20;;;;;;;34.35;21.27;;;3.50;99.90;;;;;;4974678;28;20077;-78
2023/12/06 09:05:48;;;;;;;38.15;23.50;;;3.50;99.90;;;;;;4974895;28;20026;-80
2023/12/06 09:08:15;;;;;;;38.72;22.48;;;3.50;99.90;;;;;;4974799;28;20039;-80
2023/12/06 09:10:41;;;;;;;35.95;21.13;;;3.50;99.90;;;;;;4974129;28;20078;-77
2023/12/06 09:13:07;;;;;;;34.80;21.17;;;3.40;99.90;;;;;;4974829;28;20039;-80
2023/12/06 09:15:33;;;;;;;35.55;22.15;;;3.40;99.90;;;;;;4974205;28;20492;-81
2023/12/06 09:17:59;;;;;;;35.88;21.42;;;3.40;99.90;;;;;;4974585;28;20045;-78
2023/12/06 09:20:25;;;;;;;37.60;22.60;;;3.40;99.90;;;;;;4974329;28;20067;-76
2023/12/06 09:22:51;;;;;;;39.72;23.75;;;3.40;99.90;;;;;;4974504;28;20023;-79
2023/12/06 09:25:17;;;;;;;49.25;28.98;;;3.30;99.90;;;;;;4974270;28;20433;-78
2023/12/06 09:27:43;;;;;;;43.17;25.17;;;3.40;99.90;;;;;;4974264;28;20026;-74
2023/12/06 09:30:10;;;;;;;42.60;25.98;;;3.30;99.90;;;;;;4959631;28;20462;-80
2023/12/06 09:32:36;;;;;;;41.58;26.42;;;3.40;99.90;;;;;;4973924;28;20031;-79
2023/12/06 09:35:02;;;;;;;42.33;26.67;;;3.30;99.90;;;;;;4974409;28;20367;-78
2023/12/06 09:37:28;;;;;;;34.33;22.38;;;3.20;99.90;;;;;;4973706;28;20039;-80
2023/12/06 09:39:54;;;;;;;35.15;20.92;;;3.20;99.90;;;;;;4974452;28;20053;-81
2023/12/06 09:42:23;;;;;;;31.30;20.50;;;3.20;99.90;;;;;;4973741;28;20031;-77
2023/12/06 09:44:51;;;;;;;36.25;22.25;;;3.10;99.90;;;;;;4974215;28;20066;-79
2023/12/06 09:47:19;;;;;;;32.42;20.50;;;3.10;99.90;;;;;;4973648;28;20066;-78
2023/12/06 09:49:45;;;;;;;32.65;19.40;;;3.10;99.90;;;;;;4974087;28;20042;-80
2023/12/06 09:52:17;;;;;;;30.35;19.40;;;3.00;99.90;;;;;;4973662;28;20481;-80
2023/12/06 09:54:44;;;;;;;31.50;19.77;;;3.00;99.90;;;;;;4973889;28;20029;-79
2023/12/06 09:57:11;;;;;;;31.20;19.48;;;3.00;99.90;;;;;;4973645;28;20026;-79
2023/12/06 09:59:38;;;;;;;33.65;20.55;;;2.90;99.90;;;;;;4973725;28;20023;-81
2023/12/06 10:02:04;;;;;;;35.65;21.55;;;2.90;99.90;;;;;;4973453;28;20101;-75
2023/12/06 10:04:30;;;;;;;37.25;21.25;;;3.00;99.90;;;;;;4973585;28;20165;-81
2023/12/06 10:06:57;;;;;;;38.25;21.70;;;2.90;99.90;;;;;;4973679;28;20023;-81
2023/12/06 10:09:23;;;;;;;38.22;22.17;;;2.90;99.90;;;;;;4973243;28;20039;-81
2023/12/06 10:11:49;;;;;;;33.40;20.33;;;2.90;99.90;;;;;;4973128;28;20054;-79
2023/12/06 10:14:19;;;;;;;32.97;22.65;;;2.90;99.90;;;;;;4973751;28;20031;-79
2023/12/06 10:16:48;;;;;;;32.85;19.30;;;2.90;99.90;;;;;;4973158;28;20506;-78
2023/12/06 10:19:19;;;;;;;36.25;22.88;;;3.00;99.90;;;;;;4973462;28;20439;-79
2023/12/06 10:21:47;;;;;;;33.13;21.30;;;2.90;99.90;;;;;;4973180;28;20031;-76
2023/12/06 10:24:13;;;;;;;34.83;21.98;;;2.90;99.90;;;;;;4972906;28;20031;-80
2023/12/06 10:26:42;;;;;;;33.72;19.90;;;2.90;99.90;;;;;;4972949;28;20513;-77
2023/12/06 10:29:08;;;;;;;27.90;18.45;;;2.90;99.90;;;;;;4976205;28;20544;-78
2023/12/06 10:31:41;;;;;;;28.92;17.98;;;2.80;99.90;;;;;;4977639;28;20018;-77
2023/12/06 10:34:08;;;;;;;29.23;18.35;;;2.90;99.90;;;;;;4970669;28;20026;-75
2023/12/06 10:36:35;;;;;;;35.97;20.98;;;2.90;99.90;;;;;;4972213;28;20023;-80
2023/12/06 10:39:02;;;;;;;28.00;17.98;;;2.90;99.90;;;;;;4972623;28;20039;-76
2023/12/06 10:41:31;;;;;;;27.13;15.63;;;2.80;99.90;;;;;;4973222;28;20023;-75
2023/12/06 10:43:59;;;;;;;28.25;18.17;;;2.70;99.90;;;;;;4972773;28;20035;-77
2023/12/06 10:46:26;;;;;;;27.55;17.85;;;2.70;99.90;;;;;;4973087;28;20023;-77
2023/12/06 10:48:53;;;;;;;25.02;16.20;;;2.70;99.90;;;;;;4972517;28;20055;-77
2023/12/06 10:51:20;;;;;;;26.92;17.00;;;2.70;99.90;;;;;;4981336;28;20299;-75
2023/12/06 10:53:46;;;;;;;24.88;16.40;;;2.60;99.90;;;;;;4987879;28;20033;-76
2023/12/06 10:56:15;;;;;;;25.80;17.10;;;2.70;99.90;;;;;;4975920;28;20390;-77
2023/12/06 10:58:42;;;;;;;25.17;15.05;;;2.70;99.90;;;;;;4977368;28;20482;-74
2023/12/06 11:01:09;;;;;;;27.42;16.65;;;2.70;99.90;;;;;;4977322;28;20035;-71
2023/12/06 11:03:36;;;;;;;26.45;15.25;;;2.70;99.90;;;;;;4985698;28;20544;-80
2023/12/06 11:06:39;;;;;;;23.25;15.10;;;2.80;99.90;;;;;;4971361;28;20027;-73
2023/12/06 11:09:24;;;;;;;26.58;15.95;;;2.80;99.90;;;;;;4968058;28;20023;-74
2023/12/06 11:12:14;;;;;;;28.00;16.60;;;2.80;99.90;;;;;;4969246;28;20049;-78
2023/12/06 11:15:09;;;;;;;26.05;15.45;;;2.70;99.90;;;;;;4960633;28;20102;-73
2023/12/06 11:17:47;;;;;;;26.77;16.80;;;2.70;99.90;;;;;;4924874;29;20078;-75
2023/12/06 11:20:13;;;;;;;23.67;15.65;;;2.60;99.90;;;;;;4919991;29;20111;-81
2023/12/06 11:22:40;;;;;;;27.17;16.90;;;2.50;99.90;;;;;;4932129;29;20451;-79
2023/12/06 11:25:09;;;;;;;24.45;15.25;;;2.50;99.90;;;;;;4936040;29;20023;-80
2023/12/06 11:27:40;;;;;;;25.27;16.48;;;2.40;99.90;;;;;;4937812;29;20119;-80
2023/12/06 11:30:19;;;;;;;25.77;16.77;;;2.40;99.90;;;;;;4932131;29;20036;-79
2023/12/06 11:32:46;;;;;;;27.55;16.83;;;2.40;99.90;;;;;;4940040;29;20031;-78
2023/12/06 11:35:13;;;;;;;27.17;15.82;;;2.40;99.90;;;;;;4925647;29;20074;-77
2023/12/06 11:37:39;;;;;;;26.30;16.30;;;2.40;99.90;;;;;;4945670;29;20119;-77
2023/12/06 11:40:18;;;;;;;26.88;17.80;;;2.20;99.90;;;;;;4919864;29;20039;-76
2023/12/06 11:42:56;;;;;;;28.63;17.42;;;2.30;99.90;;;;;;4929965;29;20047;-76
2023/12/06 11:45:32;;;;;;;27.20;17.33;;;2.30;99.90;;;;;;4928659;29;20110;-78
2023/12/06 11:48:08;;;;;;;22.85;17.15;;;2.30;99.90;;;;;;4935711;29;20490;-79
2023/12/06 11:50:47;;;;;;;28.98;18.58;;;2.30;99.90;;;;;;4935509;29;20150;-78
2023/12/06 11:53:13;;;;;;;26.55;18.92;;;2.30;99.90;;;;;;4938769;28;20058;-73
2023/12/06 11:55:41;;;;;;;27.70;18.80;;;2.40;99.90;;;;;;4981951;28;20500;-77
2023/12/06 11:58:11;;;;;;;27.48;17.73;;;2.40;99.90;;;;;;4978987;28;20035;-78
2023/12/06 12:00:42;;;;;;;29.30;17.75;;;2.30;99.90;;;;;;4979256;28;20018;-76
2023/12/06 12:03:11;;;;;;;27.35;18.40;;;2.40;99.90;;;;;;4975876;28;20441;-78
2023/12/06 12:05:38;;;;;;;26.75;17.92;;;2.30;99.90;;;;;;4975621;28;20096;-78
2023/12/06 12:08:04;;;;;;;26.13;17.75;;;2.40;99.90;;;;;;4976039;28;20050;-77
2023/12/06 12:10:31;;;;;;;31.23;19.98;;;2.30;99.90;;;;;;4975514;28;20502;-78
2023/12/06 12:12:57;;;;;;;33.72;22.65;;;2.40;99.90;;;;;;4975839;28;20086;-76
2023/12/06 12:15:25;;;;;;;34.38;21.73;;;2.40;99.90;;;;;;4975565;28;20019;-78
2023/12/06 12:17:52;;;;;;;36.47;22.92;;;2.40;99.90;;;;;;4958108;28;20442;-79
2023/12/06 12:20:18;;;;;;;33.80;22.88;;;2.40;99.90;;;;;;4975263;28;20066;-78
2023/12/06 12:22:49;;;;;;;33.63;23.00;;;2.40;99.90;;;;;;4975470;28;20081;-78
2023/12/06 12:25:16;;;;;;;31.17;21.23;;;2.30;99.90;;;;;;4958337;28;20089;-78
2023/12/06 12:27:51;;;;;;;34.40;22.38;;;2.40;99.90;;;;;;4975367;28;20019;-78
2023/12/06 12:30:17;;;;;;;35.17;22.00;;;2.40;99.90;;;;;;4975659;28;20031;-79
2023/12/06 12:32:51;;;;;;;35.08;24.27;;;2.40;99.90;;;;;;4975451;28;20044;-78
2023/12/06 12:35:18;;;;;;;38.15;24.38;;;2.40;99.90;;;;;;4975184;28;20050;-78